createdAt,value
2016-06-17T00:00:43.635Z,13.31
2016-06-17T00:01:22.920Z,13.24
2016-06-17T00:02:22.939Z,13.28
2016-06-17T00:03:35.707Z,13.24
2016-06-17T00:04:22.993Z,13.17
2016-06-17T00:05:23.122Z,13.17
2016-06-17T00:06:22.875Z,13.08
2016-06-17T00:07:22.956Z,13.09
2016-06-17T00:08:42.132Z,13.02
2016-06-17T00:09:23.088Z,13.02
2016-06-17T00:10:54.248Z,12.91
2016-06-17T00:11:23.017Z,12.91
2016-06-17T00:12:23.005Z,12.88
2016-06-17T00:13:35.930Z,12.9
2016-06-17T00:14:23.183Z,12.9
2016-06-17T00:15:48.906Z,12.93
2016-06-17T00:16:32.878Z,12.98
2016-06-17T00:17:32.897Z,12.88
2016-06-17T00:18:32.884Z,12.91
2016-06-17T00:19:32.920Z,12.98
2016-06-17T00:20:32.938Z,12.99
2016-06-17T00:21:32.802Z,13.03
2016-06-17T00:22:34.242Z,13.03
2016-06-17T00:23:34.262Z,13.11
2016-06-17T00:24:45.593Z,13.09
2016-06-17T00:25:52.284Z,13.08
2016-06-17T00:26:33.069Z,13.2
2016-06-17T00:28:33.107Z,13.19
2016-06-17T00:29:32.985Z,13.2
2016-06-17T00:30:33.161Z,13.16
2016-06-17T00:31:36.054Z,13.28
2016-06-17T00:32:45.918Z,13.26
2016-06-17T00:33:33.030Z,13.24
2016-06-17T00:34:52.284Z,13.39
2016-06-17T00:35:33.100Z,13.27
2016-06-17T00:37:04.560Z,13.33
2016-06-17T00:37:33.138Z,13.33
2016-06-17T00:38:33.329Z,13.39
2016-06-17T00:39:33.317Z,13.36
2016-06-17T00:40:33.367Z,13.39
2016-06-17T00:41:33.433Z,13.31
2016-06-17T00:42:33.390Z,13.39
2016-06-17T00:43:33.409Z,13.4
2016-06-17T00:44:33.428Z,13.47
2016-06-17T00:45:52.509Z,13.49
2016-06-17T00:46:33.481Z,13.57
2016-06-17T00:47:33.485Z,13.42
2016-06-17T00:48:36.410Z,13.52
2016-06-17T00:49:46.257Z,13.5
2016-06-17T00:50:33.291Z,13.54
2016-06-17T00:51:33.576Z,13.58
2016-06-17T00:52:33.438Z,13.57
2016-06-17T00:53:36.332Z,13.61
2016-06-17T00:54:33.647Z,13.6
2016-06-17T00:55:33.494Z,13.67
2016-06-17T00:56:35.106Z,13.62
2016-06-17T00:57:33.688Z,13.67
2016-06-17T00:58:33.535Z,13.67
2016-06-17T00:59:52.945Z,13.62
2016-06-17T01:00:36.886Z,13.67
2016-06-17T01:02:02.596Z,13.67
2016-06-17T01:02:47.096Z,13.71
2016-06-17T01:03:59.974Z,13.65
2016-06-17T01:04:53.524Z,13.68
2016-06-17T01:06:12.266Z,13.71
2016-06-17T01:06:42.407Z,13.75
2016-06-17T01:08:47.320Z,13.75
2016-06-17T01:09:42.323Z,13.7
2016-06-17T01:10:41.092Z,13.68
2016-06-17T01:11:41.080Z,13.75
2016-06-17T01:13:00.333Z,13.78
2016-06-17T01:13:53.727Z,13.79
2016-06-17T01:15:12.469Z,13.89
2016-06-17T01:15:42.438Z,13.73
2016-06-17T01:16:41.222Z,13.86
2016-06-17T01:17:54.022Z,13.7
2016-06-17T01:18:40.948Z,13.7
2016-06-17T01:20:06.939Z,13.85
2016-06-17T01:20:50.455Z,13.83
2016-06-17T01:21:50.756Z,13.82
2016-06-17T01:22:50.773Z,13.79
2016-06-17T01:23:50.841Z,13.75
2016-06-17T01:24:52.218Z,13.79
2016-06-17T01:25:58.550Z,13.83
2016-06-17T01:27:03.588Z,13.87
2016-06-17T01:28:16.247Z,13.93
2016-06-17T01:28:50.904Z,13.91
2016-06-17T01:30:57.239Z,13.95
2016-06-17T01:31:50.962Z,13.94
2016-06-17T01:33:10.030Z,14
2016-06-17T01:33:51.030Z,14.04
2016-06-17T01:34:51.034Z,14
2016-06-17T01:35:52.444Z,14.01
2016-06-17T01:36:51.089Z,13.97
2016-06-17T01:37:51.076Z,14.03
2016-06-17T01:38:51.283Z,14.01
2016-06-17T01:39:51.160Z,13.98
2016-06-17T01:40:51.086Z,14
2016-06-17T01:41:51.028Z,13.98
2016-06-17T01:42:52.437Z,14
2016-06-17T01:44:03.816Z,13.95
2016-06-17T01:45:03.850Z,13.95
2016-06-17T01:46:10.310Z,13.98
2016-06-17T01:47:07.002Z,14
2016-06-17T01:47:54.096Z,13.98
2016-06-17T01:48:54.270Z,14.08
2016-06-17T01:49:54.305Z,13.95
2016-06-17T01:51:06.906Z,14.07
2016-06-17T01:51:54.374Z,14.07
2016-06-17T01:52:54.222Z,14.07
2016-06-17T01:54:07.072Z,14.12
2016-06-17T01:54:54.416Z,14.05
2016-06-17T01:56:10.207Z,14.07
2016-06-17T01:56:54.457Z,14.08
2016-06-17T01:58:13.700Z,14.07
2016-06-17T01:59:07.111Z,14.13
2016-06-17T01:59:57.424Z,14.16
2016-06-17T02:01:13.886Z,14.07
2016-06-17T02:01:54.417Z,14.2
2016-06-17T02:03:16.707Z,14.18
2016-06-17T02:04:07.053Z,14.25
2016-06-17T02:05:00.913Z,14.18
2016-06-17T02:06:20.421Z,14.18
2016-06-17T02:07:07.440Z,14.2
2016-06-17T02:08:20.460Z,14.13
2016-06-17T02:09:04.522Z,14.18
2016-06-17T02:10:04.541Z,14.22
2016-06-17T02:11:17.315Z,14.19
2016-06-17T02:12:07.741Z,14.08
2016-06-17T02:13:30.274Z,14.19
2016-06-17T02:14:04.633Z,14.19
2016-06-17T02:15:07.531Z,14.18
2016-06-17T02:16:17.457Z,14.16
2016-06-17T02:17:04.691Z,14.13
2016-06-17T02:18:30.229Z,14.12
2016-06-17T02:19:04.729Z,14.13
2016-06-17T02:20:04.639Z,14.13
2016-06-17T02:21:23.990Z,14.12
2016-06-17T02:22:04.772Z,14.15
2016-06-17T02:23:04.649Z,14.13
2016-06-17T02:24:17.594Z,14.12
2016-06-17T02:25:07.753Z,14.13
2016-06-17T02:26:04.878Z,14.11
2016-06-17T02:27:17.699Z,14.12
2016-06-17T02:28:07.795Z,14.11
2016-06-17T02:29:30.439Z,14.05
2016-06-17T02:30:15.803Z,14.04
2016-06-17T02:31:33.306Z,14.01
2016-06-17T02:32:14.278Z,13.98
2016-06-17T02:33:45.733Z,13.94
2016-06-17T02:34:29.800Z,14.08
2016-06-17T02:35:29.710Z,13.93
2016-06-17T02:36:32.636Z,13.95
2016-06-17T02:37:32.763Z,14.05
2016-06-17T02:38:29.783Z,14.05
2016-06-17T02:39:29.646Z,14.04
2016-06-17T02:40:29.680Z,14.08
2016-06-17T02:41:42.591Z,14.12
2016-06-17T02:42:32.750Z,14.11
2016-06-17T02:43:29.893Z,14.07
2016-06-17T02:44:29.929Z,14.2
2016-06-17T02:45:42.683Z,14.15
2016-06-17T02:46:29.920Z,14.19
2016-06-17T02:47:55.689Z,14.19
2016-06-17T02:48:42.708Z,14.22
2016-06-17T02:49:30.024Z,14.19
2016-06-17T02:50:55.793Z,14.23
2016-06-17T02:51:39.625Z,14.19
2016-06-17T02:52:39.628Z,14.19
2016-06-17T02:53:52.366Z,14.2
2016-06-17T02:54:41.104Z,14.23
2016-06-17T02:55:39.717Z,14.33
2016-06-17T02:56:39.735Z,14.2
2016-06-17T02:57:52.458Z,14.19
2016-06-17T02:58:55.524Z,14.22
2016-06-17T02:59:39.621Z,14.22
2016-06-17T03:00:45.906Z,14.19
2016-06-17T03:01:52.550Z,14.16
2016-06-17T03:02:39.850Z,14.25
2016-06-17T03:03:39.838Z,14.13
2016-06-17T03:04:39.935Z,14.19
2016-06-17T03:05:39.908Z,14.2
2016-06-17T03:06:39.958Z,14.22
2016-06-17T03:07:52.711Z,14.23
2016-06-17T03:08:39.668Z,14.2
2016-06-17T03:10:49.534Z,14.22
2016-06-17T03:11:49.569Z,14.25
2016-06-17T03:13:02.463Z,14.2
2016-06-17T03:13:49.763Z,14.23
2016-06-17T03:14:49.798Z,14.25
2016-06-17T03:16:02.379Z,14.25
2016-06-17T03:17:02.555Z,14.22
2016-06-17T03:17:49.840Z,14.19
2016-06-17T03:19:15.518Z,14.11
2016-06-17T03:20:25.178Z,14.19
2016-06-17T03:21:18.666Z,14.19
2016-06-17T03:21:59.525Z,14.13
2016-06-17T03:22:59.545Z,14.2
2016-06-17T03:24:02.704Z,14.19
2016-06-17T03:25:28.399Z,14.13
2016-06-17T03:26:12.417Z,14.16
2016-06-17T03:27:12.406Z,14.2
2016-06-17T03:28:44.362Z,14.19
2016-06-17T03:29:12.475Z,14.25
2016-06-17T03:31:53.419Z,14.18
2016-06-17T03:32:27.782Z,14.25
2016-06-17T03:34:45.913Z,14.3
2016-06-17T03:35:45.934Z,14.2
2016-06-17T03:36:58.530Z,14.19
2016-06-17T03:37:49.002Z,14.28
2016-06-17T03:39:11.588Z,14.31
2016-06-17T03:39:46.010Z,14.19
2016-06-17T03:42:02.548Z,14.26
2016-06-17T03:43:21.617Z,14.19
2016-06-17T03:44:17.980Z,14.19
2016-06-17T03:45:24.437Z,14.22
2016-06-17T03:46:30.941Z,14.26
2016-06-17T03:47:37.444Z,14.36
2016-06-17T03:48:18.244Z,14.38
2016-06-17T03:49:49.543Z,14.36
2016-06-17T03:50:27.735Z,14.45
2016-06-17T03:53:40.340Z,14.48
2016-06-17T03:54:43.499Z,14.43
2016-06-17T03:55:53.158Z,14.59
2016-06-17T03:57:02.787Z,14.52
2016-06-17T03:58:12.403Z,14.56
2016-06-17T03:59:22.110Z,14.52
2016-06-17T04:00:31.582Z,14.59
2016-06-17T04:01:41.367Z,14.63
2016-06-17T04:02:50.996Z,14.67
2016-06-17T04:04:00.483Z,14.78
2016-06-17T04:05:10.115Z,14.82
2016-06-17T04:06:19.619Z,14.81
2016-06-17T04:07:19.684Z,14.89
2016-06-17T04:08:19.547Z,14.9
2016-06-17T04:09:38.863Z,14.92
2016-06-17T04:10:20.944Z,14.89
2016-06-17T04:11:19.761Z,14.99
2016-06-17T04:12:19.548Z,14.96
2016-06-17T04:13:38.961Z,15.1
2016-06-17T04:14:22.609Z,15.17
2016-06-17T04:15:41.835Z,15.19
2016-06-17T04:16:57.106Z,15.25
2016-06-17T04:17:57.112Z,15.29
2016-06-17T04:18:57.132Z,15.33
2016-06-17T04:20:09.922Z,15.44
2016-06-17T04:20:57.188Z,15.51
2016-06-17T04:23:32.435Z,15.67
2016-06-17T04:24:41.908Z,15.65
2016-06-17T04:25:16.428Z,15.75
2016-06-17T04:27:18.997Z,15.87
2016-06-17T04:27:50.700Z,15.85
2016-06-17T04:28:31.720Z,15.94
2016-06-17T04:30:34.275Z,16.13
2016-06-17T04:31:12.309Z,16.24
2016-06-17T04:31:46.793Z,16.29
2016-06-17T04:33:18.129Z,16.47
2016-06-17T04:34:02.410Z,16.44
2016-06-17T04:35:21.855Z,16.54
2016-06-17T04:35:59.246Z,16.55
2016-06-17T04:38:38.537Z,16.77
2016-06-17T04:39:12.884Z,16.83
2016-06-17T04:40:12.919Z,16.89
2016-06-17T04:41:22.564Z,16.99
2016-06-17T04:42:48.331Z,16.94
2016-06-17T04:43:57.804Z,16.98
2016-06-17T04:44:41.604Z,17.02
2016-06-17T04:46:07.172Z,17.1
2016-06-17T04:47:22.413Z,17.04
2016-06-17T04:48:31.899Z,17.13
2016-06-17T04:49:06.399Z,17.19
2016-06-17T04:51:09.000Z,17.32
2016-06-17T04:51:40.863Z,17.27
2016-06-17T04:52:21.539Z,17.28
2016-06-17T04:54:24.280Z,17.5
2016-06-17T04:55:02.514Z,17.54
2016-06-17T04:55:36.987Z,17.5
2016-06-17T04:57:39.603Z,17.91
2016-06-17T04:58:11.482Z,17.95
2016-06-17T04:58:52.279Z,18.16
2016-06-17T05:00:23.582Z,18.58
2016-06-17T05:01:01.926Z,18.74
2016-06-17T05:03:42.390Z,19.63
2016-06-17T05:04:16.737Z,19.82
2016-06-17T05:06:32.181Z,20.12
2016-06-17T05:07:32.232Z,20.37
2016-06-17T05:08:44.938Z,20.52
2016-06-17T05:09:45.020Z,20.78
2016-06-17T05:10:51.460Z,20.93
2016-06-17T05:11:32.151Z,21.25
2016-06-17T05:13:03.593Z,21.91
2016-06-17T05:13:35.377Z,22.15
2016-06-17T05:15:16.384Z,22.83
2016-06-17T05:15:43.196Z,23.14
2016-06-17T05:16:41.809Z,23.71
2016-06-17T05:17:54.438Z,24.28
2016-06-17T05:18:49.394Z,24.59
2016-06-17T05:21:16.998Z,25.74
2016-06-17T05:22:26.720Z,26.06
2016-06-17T05:23:10.752Z,26.64
2016-06-17T05:24:29.977Z,26.96
2016-06-17T05:25:12.231Z,26.85
2016-06-17T05:26:42.203Z,27.38
2016-06-17T05:27:23.598Z,27.44
2016-06-17T05:28:10.895Z,27.53
2016-06-17T05:29:36.589Z,27.43
2016-06-17T05:30:12.358Z,27.43
2016-06-17T05:31:42.409Z,27.66
2016-06-17T05:32:26.412Z,27.93
2016-06-17T05:33:26.446Z,28.31
2016-06-17T05:34:39.059Z,28.49
2016-06-17T05:35:35.797Z,28.65
2016-06-17T05:37:42.694Z,28.71
2016-06-17T05:38:26.339Z,28.78
2016-06-17T05:41:07.611Z,28.94
2016-06-17T05:42:07.490Z,28.86
2016-06-17T05:43:07.664Z,28.77
2016-06-17T05:44:20.437Z,28.9
2016-06-17T05:45:26.972Z,29.07
2016-06-17T05:47:14.214Z,29.09
2016-06-17T05:49:23.189Z,29.16
2016-06-17T05:49:55.064Z,29.24
2016-06-17T05:50:51.974Z,29.32
2016-06-17T05:51:52.133Z,29.74
2016-06-17T05:53:11.121Z,30.56
2016-06-17T05:53:53.499Z,30.96
2016-06-17T05:55:23.397Z,31.98
2016-06-17T05:56:07.038Z,32.42
2016-06-17T05:57:32.763Z,33.13
2016-06-17T05:58:16.594Z,33.17
2016-06-17T06:00:48.492Z,33.4
2016-06-17T06:01:29.340Z,33.55
2016-06-17T06:02:57.922Z,33.63
2016-06-17T06:03:48.441Z,33.44
2016-06-17T06:06:13.181Z,32.81
2016-06-17T06:06:47.560Z,32.15
2016-06-17T06:07:47.439Z,31.32
2016-06-17T06:09:06.865Z,30.85
2016-06-17T06:10:16.246Z,30.81
2016-06-17T06:10:50.699Z,31
2016-06-17T06:12:03.624Z,31.25
2016-06-17T06:12:58.597Z,31.47
2016-06-17T06:15:06.510Z,32.78
2016-06-17T06:16:06.216Z,33.5
2016-06-17T06:17:25.035Z,34.24
2016-06-17T06:18:07.629Z,34.63
2016-06-17T06:20:21.155Z,35.93
2016-06-17T06:21:21.488Z,36.11
2016-06-17T06:22:34.349Z,35.84
2016-06-17T06:23:40.447Z,35.34
2016-06-17T06:24:47.232Z,34.7
2016-06-17T06:26:27.817Z,33.47
2016-06-17T06:28:31.262Z,32.05
2016-06-17T06:29:05.606Z,31.2
2016-06-17T06:30:05.645Z,30.59
2016-06-17T06:31:05.685Z,29.89
2016-06-17T06:32:08.756Z,29.53
2016-06-17T06:33:05.749Z,29.22
2016-06-17T06:34:08.679Z,28.89
2016-06-17T06:35:25.033Z,28.43
2016-06-17T06:36:28.288Z,28.01
2016-06-17T06:37:28.089Z,27.6
2016-06-17T06:39:36.083Z,26.46
2016-06-17T06:40:09.145Z,26.13
2016-06-17T06:41:43.450Z,25.92
2016-06-17T06:42:24.424Z,26.34
2016-06-17T06:44:15.962Z,28.31
2016-06-17T06:44:41.228Z,28.93
2016-06-17T06:45:41.263Z,30.21
2016-06-17T06:46:41.126Z,31.87
2016-06-17T06:47:41.395Z,33.2
2016-06-17T06:48:53.945Z,34.13
2016-06-17T06:49:41.386Z,34.35
2016-06-17T06:51:12.702Z,34.88
2016-06-17T06:51:44.424Z,34.91
2016-06-17T06:53:15.744Z,34.1
2016-06-17T06:53:45.916Z,33.47
2016-06-17T06:54:44.544Z,31.67
2016-06-17T06:55:44.361Z,30.26
2016-06-17T06:56:44.769Z,29.61
2016-06-17T06:57:44.710Z,29.39
2016-06-17T06:58:44.793Z,29.25
2016-06-17T06:59:44.702Z,29.24
2016-06-17T07:00:44.737Z,29.22
2016-06-17T07:01:57.709Z,28.77
2016-06-17T07:02:44.790Z,28.35
2016-06-17T07:03:44.762Z,27.97
2016-06-17T07:04:44.719Z,27.5
2016-06-17T07:05:44.910Z,27.08
2016-06-17T07:06:44.789Z,26.64
2016-06-17T07:08:04.026Z,26.1
2016-06-17T07:08:45.045Z,26.23
2016-06-17T07:09:45.033Z,26.22
2016-06-17T07:10:44.943Z,26.13
2016-06-17T07:11:45.103Z,26.22
2016-06-17T07:12:45.184Z,26.24
2016-06-17T07:14:04.376Z,26.1
2016-06-17T07:14:45.301Z,25.93
2016-06-17T07:15:45.194Z,25.78
2016-06-17T07:17:04.308Z,25.68
2016-06-17T07:17:48.280Z,25.71
2016-06-17T07:20:29.274Z,25.61
2016-06-17T07:21:29.278Z,25.41
2016-06-17T07:22:29.376Z,25.44
2016-06-17T07:23:29.176Z,25.36
2016-06-17T07:24:29.539Z,25.31
2016-06-17T07:25:29.417Z,25.29
2016-06-17T07:26:29.498Z,25.07
2016-06-17T07:27:29.502Z,24.99
2016-06-17T07:28:29.506Z,25.03
2016-06-17T07:29:29.524Z,25.04
2016-06-17T07:30:29.560Z,25.06
2016-06-17T07:31:32.062Z,24.85
2016-06-17T07:32:29.628Z,24.88
2016-06-17T07:33:42.460Z,24.66
2016-06-17T07:34:29.683Z,24.59
2016-06-17T07:35:29.764Z,24.66
2016-06-17T07:36:42.470Z,24.75
2016-06-17T07:37:29.770Z,24.88
2016-06-17T07:38:55.571Z,25.11
2016-06-17T07:40:05.199Z,25.18
2016-06-17T07:40:58.625Z,25.33
2016-06-17T07:42:56.084Z,25.59
2016-06-17T07:43:56.119Z,25.59
2016-06-17T07:45:08.748Z,25.46
2016-06-17T07:46:08.783Z,25.26
2016-06-17T07:47:15.412Z,25.16
2016-06-17T07:48:16.727Z,24.75
2016-06-17T07:49:45.406Z,24.69
2016-06-17T07:50:00.547Z,24.4
2016-06-17T07:51:00.612Z,24.56
2016-06-17T07:52:19.855Z,24.82
2016-06-17T07:53:16.636Z,24.97
2016-06-17T07:54:16.561Z,25.06
2016-06-17T07:55:29.224Z,25.06
2016-06-17T07:56:29.352Z,25.09
2016-06-17T07:57:16.649Z,25
2016-06-17T07:58:47.984Z,24.77
2016-06-17T07:59:31.785Z,24.79
2016-06-17T08:05:24.974Z,24.16
2016-06-17T08:06:24.947Z,24.48
2016-06-17T08:07:55.766Z,24.53
2016-06-17T08:08:38.035Z,24.75
2016-06-17T08:10:10.132Z,25.04
2016-06-17T08:10:38.085Z,25.15
2016-06-17T08:11:38.105Z,25.31
2016-06-17T08:14:23.927Z,25.48
2016-06-17T08:14:52.586Z,25.66
2016-06-17T08:15:51.356Z,25.68
2016-06-17T08:16:52.703Z,25.98
2016-06-17T08:18:11.238Z,26.53
2016-06-17T08:18:51.586Z,26.55
2016-06-17T08:20:52.123Z,26.96
2016-06-17T08:21:52.143Z,26.93
2016-06-17T08:22:59.083Z,26.92
2016-06-17T08:23:51.650Z,26.79
2016-06-17T08:24:52.856Z,26.6
2016-06-17T08:25:51.657Z,26.37
2016-06-17T08:27:05.035Z,26.27
2016-06-17T08:27:51.710Z,26.23
2016-06-17T08:28:53.401Z,26.11
2016-06-17T08:30:10.983Z,26.15
2016-06-17T08:31:05.752Z,25.89
2016-06-17T08:31:52.506Z,25.74
2016-06-17T08:32:52.541Z,25.41
2016-06-17T08:33:52.497Z,25.19
2016-06-17T08:34:52.610Z,24.97
2016-06-17T08:35:53.175Z,24.75
2016-06-17T08:36:52.648Z,24.59
2016-06-17T08:37:54.730Z,24.4
2016-06-17T08:38:52.702Z,24.22
2016-06-17T08:40:04.815Z,24.1
2016-06-17T08:40:52.802Z,23.95
2016-06-17T08:41:52.774Z,24.01
2016-06-17T08:42:52.794Z,23.84
2016-06-17T08:43:53.531Z,23.77
2016-06-17T08:44:28.406Z,23.94
2016-06-17T08:46:36.335Z,23.91
2016-06-17T08:47:36.371Z,24
2016-06-17T08:49:02.706Z,23.88
2016-06-17T08:49:36.425Z,23.76
2016-06-17T08:50:37.694Z,23.11
2016-06-17T08:51:36.510Z,22.36
2016-06-17T08:52:36.499Z,21.8
2016-06-17T08:53:44.049Z,21.26
2016-06-17T08:54:49.301Z,21.05
2016-06-17T08:55:40.259Z,20.89
2016-06-17T08:56:36.653Z,20.77
2016-06-17T08:57:50.031Z,20.63
2016-06-17T08:58:36.692Z,20.67
2016-06-17T08:59:37.319Z,20.55
2016-06-17T09:00:36.745Z,20.53
2016-06-17T09:01:50.092Z,20.3
2016-06-17T09:02:43.674Z,20.11
2016-06-17T09:03:36.881Z,20.1
2016-06-17T09:04:37.025Z,20.15
2016-06-17T09:05:56.982Z,20.11
2016-06-17T09:06:38.298Z,20.19
2016-06-17T09:07:38.769Z,20.3
2016-06-17T09:08:40.695Z,20.27
2016-06-17T09:16:38.345Z,20.07
2016-06-17T09:17:37.818Z,20.22
2016-06-17T09:25:06.382Z,20.33
2016-06-17T09:26:08.370Z,20.48
2016-06-17T09:26:36.354Z,20.75
2016-06-17T09:28:08.424Z,21.03
2016-06-17T09:28:36.393Z,21.15
2016-06-17T09:29:37.053Z,21.48
2016-06-17T09:30:35.868Z,21.7
2016-06-17T09:31:48.637Z,22.01
2016-06-17T09:32:37.125Z,22.16
2016-06-17T09:33:36.551Z,22.52
2016-06-17T09:34:49.304Z,22.56
2016-06-17T09:35:39.636Z,22.46
2016-06-17T09:37:03.299Z,22.07
2016-06-17T09:37:36.642Z,21.69
2016-06-17T09:39:08.744Z,21.56
2016-06-17T09:40:09.700Z,21.7
2016-06-17T09:40:50.935Z,21.48
2016-06-17T09:43:00.069Z,22.06
2016-06-17T09:44:00.120Z,22.26
2016-06-17T09:45:00.875Z,22.14
2016-06-17T09:46:02.584Z,22.04
2016-06-17T09:47:00.197Z,22.12
2016-06-17T09:48:18.826Z,21.63
2016-06-17T09:49:00.266Z,21.51
2016-06-17T09:49:59.646Z,21.89
2016-06-17T09:52:20.594Z,21.81
2016-06-17T09:53:04.016Z,21.7
2016-06-17T09:54:03.457Z,21.51
2016-06-17T09:55:05.492Z,21.72
2016-06-17T09:56:06.496Z,21.92
2016-06-17T09:57:02.889Z,21.69
2016-06-17T09:58:02.908Z,21.54
2016-06-17T09:59:09.837Z,21.45
2016-06-17T10:00:22.207Z,21.25
2016-06-17T10:01:35.683Z,21.2
2016-06-17T10:02:28.703Z,21.47
2016-06-17T10:03:03.735Z,21.45
2016-06-17T10:04:04.333Z,21
2016-06-17T10:05:15.870Z,20.63
2016-06-17T10:06:03.796Z,20.5
2016-06-17T10:07:03.175Z,20.78
2016-06-17T10:08:03.835Z,20.82
2016-06-17T10:09:04.478Z,21.04
2016-06-17T10:10:16.015Z,21.26
2016-06-17T10:11:04.550Z,21.59
2016-06-17T10:12:04.554Z,21.66
2016-06-17T10:13:06.573Z,22.1
2016-06-17T10:14:24.001Z,22.51
2016-06-17T10:15:04.658Z,22.61
2016-06-17T10:16:04.053Z,22.19
2016-06-17T10:17:04.714Z,22.23
2016-06-17T10:18:03.514Z,22.08
2016-06-17T10:19:04.768Z,21.89
2016-06-17T10:20:04.226Z,21.84
2016-06-17T10:21:04.823Z,21.8
2016-06-17T10:22:04.218Z,21.11
2016-06-17T10:23:05.066Z,21.2
2016-06-17T10:24:04.929Z,21.29
2016-06-17T10:25:30.749Z,21.8
2016-06-17T10:26:13.530Z,22.34
2016-06-17T10:27:32.146Z,22.56
2016-06-17T10:28:13.568Z,22.61
2016-06-17T10:29:38.216Z,22.59
2016-06-17T10:30:13.138Z,22.33
2016-06-17T10:31:13.062Z,22.33
2016-06-17T10:32:12.707Z,22.25
2016-06-17T10:33:25.869Z,22.4
2016-06-17T10:34:25.889Z,22.44
2016-06-17T10:35:14.576Z,22.71
2016-06-17T10:36:32.552Z,23.07
2016-06-17T10:37:13.224Z,23.26
2016-06-17T10:38:45.309Z,23.14
2016-06-17T10:39:13.903Z,23.18
2016-06-17T10:40:13.407Z,23.18
2016-06-17T10:41:16.363Z,23.04
2016-06-17T10:42:13.975Z,23.02
2016-06-17T10:43:13.995Z,23.32
2016-06-17T10:44:13.437Z,23.47
2016-06-17T10:45:13.502Z,23.14
2016-06-17T10:46:14.146Z,22.88
2016-06-17T10:47:14.103Z,23.17
2016-06-17T10:48:26.328Z,23.39
2016-06-17T10:49:13.593Z,23.28
2016-06-17T10:50:32.805Z,23.39
2016-06-17T10:51:19.899Z,23.26
2016-06-17T10:52:13.044Z,23.26
2016-06-17T10:53:13.063Z,23.42
2016-06-17T10:54:13.099Z,23.2
2016-06-17T10:55:19.994Z,23.28
2016-06-17T10:56:25.891Z,23.51
2016-06-17T10:57:33.019Z,23.45
2016-06-17T10:58:13.238Z,23.47
2016-06-17T10:59:14.491Z,23.47
2016-06-17T11:00:13.260Z,23.42
2016-06-17T11:01:13.295Z,23.67
2016-06-17T11:02:13.939Z,24
2016-06-17T11:03:13.990Z,24.1
2016-06-17T11:04:26.730Z,23.99
2016-06-17T11:05:15.449Z,23.86
2016-06-17T11:06:14.063Z,23.73
2016-06-17T11:07:13.487Z,23.82
2016-06-17T11:08:13.488Z,23.76
2016-06-17T11:09:26.275Z,23.14
2016-06-17T11:10:14.790Z,22.83
2016-06-17T11:11:26.906Z,23.11
2016-06-17T11:12:14.202Z,23.28
2016-06-17T11:13:32.849Z,23.34
2016-06-17T11:14:14.912Z,23.26
2016-06-17T11:15:14.977Z,23.23
2016-06-17T11:16:14.339Z,23.42
2016-06-17T11:17:14.374Z,23.36
2016-06-17T11:18:14.393Z,23.36
2016-06-17T11:19:15.037Z,23.34
2016-06-17T11:20:45.873Z,23.17
2016-06-17T11:21:21.514Z,23.17
2016-06-17T11:22:14.563Z,22.98
2016-06-17T11:23:34.352Z,22.89
2016-06-17T11:24:14.539Z,22.59
2016-06-17T11:25:35.234Z,22.33
2016-06-17T11:26:15.437Z,22.14
2016-06-17T11:27:48.146Z,21.65
2016-06-17T11:28:16.115Z,21.69
2016-06-17T11:30:31.001Z,22.28
2016-06-17T11:31:30.504Z,22.52
2016-06-17T11:32:31.069Z,22.65
2016-06-17T11:33:31.106Z,22.78
2016-06-17T11:34:33.155Z,22.98
2016-06-17T11:35:30.565Z,23.08
2016-06-17T11:36:31.178Z,23.07
2016-06-17T11:37:37.462Z,23.01
2016-06-17T11:38:31.857Z,22.92
2016-06-17T11:39:43.548Z,22.71
2016-06-17T11:40:34.925Z,22.03
2016-06-17T11:41:31.367Z,21.97
2016-06-17T11:43:34.809Z,21.72
2016-06-17T11:43:43.700Z,21.72
2016-06-17T11:44:44.360Z,21.81
2016-06-17T11:45:43.770Z,21.69
2016-06-17T11:46:43.835Z,21.54
2016-06-17T11:47:45.056Z,21.5
2016-06-17T11:48:44.497Z,21.41
2016-06-17T11:49:43.860Z,21.4
2016-06-17T11:50:44.535Z,21.08
2016-06-17T11:51:50.851Z,21.37
2016-06-17T11:52:44.542Z,21.63
2016-06-17T11:53:44.638Z,22.07
2016-06-17T11:54:45.236Z,22.28
2016-06-17T11:55:44.709Z,22.33
2016-06-17T11:56:47.134Z,22.67
2016-06-17T11:57:45.325Z,22.93
2016-06-17T11:58:57.453Z,23.07
2016-06-17T12:00:04.597Z,23.13
2016-06-17T12:00:44.788Z,23.11
2016-06-17T12:01:44.807Z,22.98
2016-06-17T12:02:44.873Z,23.11
2016-06-17T12:03:44.877Z,23.17
2016-06-17T12:04:44.896Z,23.25
2016-06-17T12:05:45.524Z,23.07
2016-06-17T12:06:44.950Z,22.86
2016-06-17T12:07:44.969Z,23.07
2016-06-17T12:08:44.379Z,23.14
2016-06-17T12:09:45.647Z,23.16
2016-06-17T12:10:45.073Z,23.28
2016-06-17T12:12:04.358Z,23.4
2016-06-17T12:13:08.282Z,23.63
2016-06-17T12:14:09.630Z,23.85
2016-06-17T12:14:51.103Z,23.82
2016-06-17T12:16:16.157Z,23.86
2016-06-17T12:16:51.257Z,23.92
2016-06-17T12:18:54.035Z,23.79
2016-06-17T12:19:24.004Z,23.81
2016-06-17T12:20:04.805Z,23.54
2016-06-17T12:21:24.155Z,23.51
2016-06-17T12:23:08.351Z,23.84
2016-06-17T12:23:37.668Z,23.73
2016-06-17T12:24:19.136Z,23.73
2016-06-17T12:25:44.847Z,23.64
2016-06-17T12:26:27.664Z,23.47
2016-06-17T12:27:45.777Z,22.84
2016-06-17T12:28:27.719Z,22.52
2016-06-17T12:29:53.488Z,22.22
2016-06-17T12:30:39.320Z,22.33
2016-06-17T12:31:36.964Z,22.43
2016-06-17T12:32:49.669Z,22.53
2016-06-17T12:34:03.439Z,22.77
2016-06-17T12:34:56.193Z,23.02
2016-06-17T12:35:48.540Z,23.2
2016-06-17T12:38:07.906Z,23.49
2016-06-17T12:39:03.565Z,23.58
2016-06-17T12:39:44.319Z,23.74
2016-06-17T12:41:09.417Z,23.88
2016-06-17T12:41:50.967Z,23.76
2016-06-17T12:42:51.064Z,23.55
2016-06-17T12:44:23.083Z,23.49
2016-06-17T12:44:53.071Z,23.26
2016-06-17T12:45:53.090Z,23.37
2016-06-17T12:46:53.171Z,23.56
2016-06-17T12:48:05.956Z,23.63
2016-06-17T12:48:53.803Z,23.76
2016-06-17T12:50:11.792Z,23.92
2016-06-17T12:50:52.623Z,23.95
2016-06-17T12:51:53.268Z,24.09
2016-06-17T12:52:53.911Z,24.34
2016-06-17T12:53:53.306Z,24.41
2016-06-17T12:54:52.824Z,24.63
2016-06-17T12:56:25.421Z,25
2016-06-17T12:57:12.066Z,25.12
2016-06-17T12:57:53.506Z,25.3
2016-06-17T12:58:53.526Z,25.21
2016-06-17T13:00:12.091Z,25.16
2016-06-17T13:01:05.751Z,25.07
2016-06-17T13:01:53.692Z,24.61
2016-06-17T13:02:54.196Z,24.37
2016-06-17T13:03:53.590Z,24.13
2016-06-17T13:04:53.703Z,24.06
2016-06-17T13:06:00.519Z,24
2016-06-17T13:07:00.553Z,23.91
2016-06-17T13:08:13.525Z,23.52
2016-06-17T13:09:06.466Z,23.33
2016-06-17T13:10:25.814Z,23.11
2016-06-17T13:11:14.426Z,23.18
2016-06-17T13:11:54.446Z,23.25
2016-06-17T13:13:25.886Z,23.37
2016-06-17T13:14:02.422Z,23.45
2016-06-17T13:15:33.146Z,23.63
2016-06-17T13:16:16.521Z,23.54
2016-06-17T13:18:13.716Z,23.51
2016-06-17T13:19:02.861Z,23.45
2016-06-17T13:19:32.801Z,23.37
2016-06-17T13:20:32.821Z,23.14
2016-06-17T13:21:39.778Z,23.11
2016-06-17T13:22:33.562Z,22.98
2016-06-17T13:23:45.049Z,23.02
2016-06-17T13:24:34.350Z,22.8
2016-06-17T13:25:58.994Z,22.61
2016-06-17T13:26:41.810Z,22.44
2016-06-17T13:28:38.958Z,22.28
2016-06-17T13:29:42.382Z,22.07
2016-06-17T13:30:20.069Z,21.92
2016-06-17T13:31:02.871Z,21.6
2016-06-17T13:32:22.076Z,21.47
2016-06-17T13:33:05.955Z,21.62
2016-06-17T13:34:28.006Z,21.22
2016-06-17T13:35:32.451Z,21.35
2016-06-17T13:36:10.841Z,21.47
2016-06-17T13:37:41.677Z,21.44
2016-06-17T13:38:11.708Z,21.51
2016-06-17T13:39:10.945Z,21.75
2016-06-17T13:40:19.636Z,22.07
2016-06-17T13:41:29.562Z,22.18
2016-06-17T13:42:10.394Z,22.34
2016-06-17T13:43:12.443Z,22.58
2016-06-17T13:44:10.448Z,22.65
2016-06-17T13:45:11.106Z,22.83
2016-06-17T13:46:11.126Z,22.4
2016-06-17T13:47:11.222Z,22.55
2016-06-17T13:48:23.289Z,22.52
2016-06-17T13:49:10.574Z,22.3
2016-06-17T13:50:09.983Z,22.1
2016-06-17T13:51:30.472Z,22.06
2016-06-17T13:52:29.865Z,21.84
2016-06-17T13:53:11.353Z,21.56
2016-06-17T13:54:11.357Z,21.17
2016-06-17T13:55:11.422Z,21.4
2016-06-17T13:56:11.442Z,21.32
2016-06-17T13:57:11.414Z,21.2
2016-06-17T13:58:10.233Z,21.22
2016-06-17T13:59:11.457Z,21.3
2016-06-17T14:00:11.510Z,21.47
2016-06-17T14:01:11.562Z,21.66
2016-06-17T14:02:11.600Z,21.85
2016-06-17T14:03:24.337Z,21.85
2016-06-17T14:04:11.622Z,22
2016-06-17T14:05:36.741Z,22.04
2016-06-17T14:06:23.194Z,21.83